createdAt,value
2018-11-03T00:00:56.069Z,1.92
2018-11-03T00:03:24.983Z,2.02
2018-11-03T00:05:53.754Z,2.08
2018-11-03T00:08:22.427Z,2.07
2018-11-03T00:10:51.046Z,2.07
2018-11-03T00:13:19.644Z,2.06
2018-11-03T00:15:48.317Z,2.04
2018-11-03T00:18:16.907Z,2.03
2018-11-03T00:20:45.633Z,2.02
2018-11-03T00:23:14.811Z,1.99
2018-11-03T00:25:43.423Z,1.96
2018-11-03T00:28:12.052Z,1.93
2018-11-03T00:30:40.821Z,1.87
2018-11-03T00:33:09.490Z,1.79
2018-11-03T00:35:38.173Z,1.73
2018-11-03T00:38:07.113Z,1.68
2018-11-03T00:40:35.876Z,1.61
2018-11-03T00:43:04.485Z,1.55
2018-11-03T00:45:33.266Z,1.51
2018-11-03T00:48:01.888Z,1.44
2018-11-03T00:50:30.552Z,1.39
2018-11-03T00:52:59.297Z,1.34
2018-11-03T00:55:27.963Z,1.27
2018-11-03T00:57:56.568Z,1.20
2018-11-03T01:00:25.214Z,1.15
2018-11-03T01:02:54.058Z,1.07
2018-11-03T01:05:23.888Z,1.04
2018-11-03T01:07:52.541Z,1.06
2018-11-03T01:10:21.358Z,1.12
2018-11-03T01:12:50.088Z,1.17
2018-11-03T01:15:19.360Z,1.15
2018-11-03T01:17:48.126Z,1.08
2018-11-03T01:20:19.177Z,1.00
2018-11-03T01:22:48.064Z,0.98
2018-11-03T01:25:16.874Z,0.97
2018-11-03T01:27:45.723Z,0.99
2018-11-03T01:30:16.010Z,0.96
2018-11-03T01:32:45.060Z,0.92
2018-11-03T01:35:13.845Z,0.90
2018-11-03T01:37:42.815Z,0.88
2018-11-03T01:40:13.015Z,0.83
2018-11-03T01:42:42.102Z,0.79
2018-11-03T01:45:10.873Z,0.78
2018-11-03T01:47:40.471Z,0.73
2018-11-03T01:50:10.857Z,0.67
2018-11-03T01:52:40.466Z,0.62
2018-11-03T01:55:10.163Z,0.63
2018-11-03T01:57:41.826Z,0.66
2018-11-03T02:00:11.563Z,0.69
2018-11-03T02:02:40.461Z,0.70
2018-11-03T02:05:09.895Z,0.72
2018-11-03T02:07:38.631Z,0.69
2018-11-03T02:10:08.424Z,0.70
2018-11-03T02:12:37.094Z,0.72
2018-11-03T02:15:06.508Z,0.72
2018-11-03T02:17:35.294Z,0.70
2018-11-03T02:20:03.927Z,0.68
2018-11-03T02:22:32.686Z,0.64
2018-11-03T02:25:01.454Z,0.65
2018-11-03T02:27:30.173Z,0.62
2018-11-03T02:29:58.896Z,0.57
2018-11-03T02:32:28.042Z,0.58
2018-11-03T02:34:56.652Z,0.61
2018-11-03T02:37:25.341Z,0.64
2018-11-03T02:39:53.932Z,0.62
2018-11-03T02:42:22.521Z,0.60
2018-11-03T02:44:51.324Z,0.59
2018-11-03T02:47:19.960Z,0.56
2018-11-03T02:49:48.636Z,0.51
2018-11-03T02:52:17.315Z,0.46
2018-11-03T02:54:46.042Z,0.46
2018-11-03T02:57:15.713Z,0.48
2018-11-03T02:59:44.402Z,0.50
2018-11-03T03:02:13.216Z,0.49
2018-11-03T03:04:41.831Z,0.48
2018-11-03T03:07:10.644Z,0.51
2018-11-03T03:09:39.425Z,0.53
2018-11-03T03:12:08.120Z,0.54
2018-11-03T03:14:36.804Z,0.53
2018-11-03T03:17:05.974Z,0.55
2018-11-03T03:19:34.840Z,0.57
2018-11-03T03:22:03.501Z,0.58
2018-11-03T03:24:32.264Z,0.59
2018-11-03T03:27:00.892Z,0.59
2018-11-03T03:29:29.661Z,0.58
2018-11-03T03:31:58.230Z,0.59
2018-11-03T03:34:26.958Z,0.61
2018-11-03T03:36:55.644Z,0.60
2018-11-03T03:39:24.475Z,0.58
2018-11-03T03:41:53.125Z,0.57
2018-11-03T03:44:21.875Z,0.50
2018-11-03T03:46:50.564Z,0.45
2018-11-03T03:49:19.343Z,0.43
2018-11-03T03:51:48.164Z,0.45
2018-11-03T03:54:16.843Z,0.48
2018-11-03T03:56:45.607Z,0.50
2018-11-03T03:59:14.487Z,0.49
2018-11-03T04:01:43.229Z,0.44
2018-11-03T04:04:12.343Z,0.36
2018-11-03T04:06:41.085Z,0.27
2018-11-03T04:09:10.604Z,0.19
2018-11-03T04:11:39.244Z,0.14
2018-11-03T04:14:07.977Z,0.09
2018-11-03T04:16:36.624Z,0.06
2018-11-03T04:19:05.763Z,0.07
2018-11-03T04:21:34.399Z,0.09
2018-11-03T04:24:03.136Z,0.12
2018-11-03T04:26:31.820Z,0.20
2018-11-03T04:29:00.629Z,0.25
2018-11-03T04:31:29.322Z,0.30
2018-11-03T04:33:58.260Z,0.36
2018-11-03T04:36:27.341Z,0.48
2018-11-03T04:38:55.928Z,0.57
2018-11-03T04:41:24.658Z,0.56
2018-11-03T04:43:53.295Z,0.50
2018-11-03T04:46:22.013Z,0.44
2018-11-03T04:48:54.862Z,0.44
2018-11-03T04:51:23.599Z,0.44
2018-11-03T04:53:52.431Z,0.40
2018-11-03T04:56:21.097Z,0.33
2018-11-03T04:58:49.722Z,0.29
2018-11-03T05:01:18.467Z,0.25
2018-11-03T05:03:47.126Z,0.24
2018-11-03T05:06:15.851Z,0.29
2018-11-03T05:08:44.484Z,0.37
2018-11-03T05:11:13.042Z,0.43
2018-11-03T05:13:41.808Z,0.45
2018-11-03T05:16:10.551Z,0.46
2018-11-03T05:18:39.243Z,0.48
2018-11-03T05:21:08.028Z,0.47
2018-11-03T05:23:36.622Z,0.51
2018-11-03T05:26:05.704Z,0.52
2018-11-03T05:28:34.946Z,0.51
2018-11-03T05:31:03.793Z,0.49
2018-11-03T05:33:32.534Z,0.52
2018-11-03T05:36:01.198Z,0.57
2018-11-03T05:38:30.076Z,0.67
2018-11-03T05:40:58.857Z,0.81
2018-11-03T05:43:27.488Z,0.88
2018-11-03T05:45:56.254Z,0.94
2018-11-03T05:48:25.058Z,1.06
2018-11-03T05:50:54.602Z,1.09
2018-11-03T05:53:23.455Z,1.13
2018-11-03T05:55:52.151Z,1.11
2018-11-03T05:58:20.806Z,1.06
2018-11-03T06:00:49.496Z,0.99
2018-11-03T06:03:18.126Z,0.91
2018-11-03T06:05:46.842Z,0.86
2018-11-03T06:08:15.399Z,0.86
2018-11-03T06:10:44.330Z,0.92
2018-11-03T06:13:13.023Z,0.98
2018-11-03T06:15:41.746Z,1.04
2018-11-03T06:18:10.439Z,1.04
2018-11-03T06:20:39.145Z,1.05
2018-11-03T06:23:08.326Z,1.16
2018-11-03T06:25:37.083Z,1.22
2018-11-03T06:28:05.841Z,1.29
2018-11-03T06:30:34.543Z,1.33
2018-11-03T06:33:03.311Z,1.31
2018-11-03T06:35:31.991Z,1.29
2018-11-03T06:38:00.754Z,1.31
2018-11-03T06:40:29.517Z,1.32
2018-11-03T06:42:58.203Z,1.34
2018-11-03T06:45:26.806Z,1.33
2018-11-03T06:47:55.655Z,1.34
2018-11-03T06:50:24.355Z,1.32
2018-11-03T06:52:53.132Z,1.37
2018-11-03T06:55:21.893Z,1.43
2018-11-03T06:57:50.672Z,1.51
2018-11-03T07:00:19.399Z,1.58
2018-11-03T07:02:48.128Z,1.70
2018-11-03T07:05:17.072Z,1.76
2018-11-03T07:07:45.622Z,1.86
2018-11-03T07:10:15.350Z,1.96
2018-11-03T07:12:44.215Z,2.05
2018-11-03T07:15:12.641Z,2.16
2018-11-03T07:17:41.339Z,2.26
2018-11-03T07:20:11.659Z,2.36
2018-11-03T07:22:40.446Z,2.44
2018-11-03T07:25:09.561Z,2.54
2018-11-03T07:27:38.224Z,2.62
2018-11-03T07:30:09.520Z,2.70
2018-11-03T07:32:38.112Z,2.80
2018-11-03T07:35:06.900Z,2.83
2018-11-03T07:37:35.767Z,2.87
2018-11-03T07:40:05.280Z,2.90
2018-11-03T07:42:34.081Z,2.94
2018-11-03T07:45:02.637Z,2.99
2018-11-03T07:47:32.364Z,3.04
2018-11-03T07:50:01.135Z,3.08
2018-11-03T07:52:29.940Z,3.16
2018-11-03T07:54:58.546Z,3.24
2018-11-03T07:57:28.238Z,3.31
2018-11-03T07:59:57.005Z,3.37
2018-11-03T08:02:25.657Z,3.42
2018-11-03T08:04:54.511Z,3.45
2018-11-03T08:07:24.288Z,3.49
2018-11-03T08:09:53.003Z,3.51
2018-11-03T08:12:21.651Z,3.53
2018-11-03T08:14:50.360Z,3.52
2018-11-03T08:17:19.075Z,3.50
2018-11-03T08:19:47.717Z,3.51
2018-11-03T08:22:16.475Z,3.50
2018-11-03T08:24:45.318Z,3.50
2018-11-03T08:27:14.029Z,3.52
2018-11-03T08:29:42.731Z,3.54
2018-11-03T08:32:11.579Z,3.58
2018-11-03T08:34:40.282Z,3.61
2018-11-03T08:37:09.075Z,3.65
2018-11-03T08:39:37.953Z,3.71
2018-11-03T08:42:06.768Z,3.77
2018-11-03T08:44:35.494Z,3.83
2018-11-03T08:47:04.318Z,3.91
2018-11-03T08:49:33.545Z,3.99
2018-11-03T08:52:02.367Z,4.03
2018-11-03T08:54:31.106Z,4.13
2018-11-03T08:57:00.092Z,4.23
2018-11-03T08:59:29.035Z,4.31
2018-11-03T09:01:57.733Z,4.37
2018-11-03T09:04:26.508Z,4.42
2018-11-03T09:06:55.282Z,4.47
2018-11-03T09:09:24.022Z,4.55
2018-11-03T09:11:52.658Z,4.60
2018-11-03T09:14:21.368Z,4.67
2018-11-03T09:16:50.146Z,4.75
2018-11-03T09:19:18.961Z,4.84
2018-11-03T09:21:47.692Z,4.95
2018-11-03T09:24:16.467Z,5.08
2018-11-03T09:26:45.191Z,5.16
2018-11-03T09:29:13.902Z,5.23
2018-11-03T09:31:42.720Z,5.29
2018-11-03T09:34:11.384Z,5.38
2018-11-03T09:36:40.805Z,5.45
2018-11-03T09:39:10.897Z,5.53
2018-11-03T09:41:39.712Z,5.61
2018-11-03T09:44:08.474Z,5.69
2018-11-03T09:46:38.093Z,5.71
2018-11-03T09:49:06.918Z,5.76
2018-11-03T09:51:35.749Z,5.87
2018-11-03T09:54:04.830Z,5.97
2018-11-03T09:56:33.553Z,6.05
2018-11-03T09:59:02.281Z,6.18
2018-11-03T10:01:30.961Z,6.29
2018-11-03T10:03:59.732Z,6.36
2018-11-03T10:06:28.639Z,6.46
2018-11-03T10:08:57.393Z,6.53
2018-11-03T10:11:26.199Z,6.56
2018-11-03T10:13:54.908Z,6.60
2018-11-03T10:16:23.648Z,6.68
2018-11-03T10:18:52.275Z,6.74
2018-11-03T10:21:21.061Z,6.83
2018-11-03T10:23:49.810Z,6.96
2018-11-03T10:26:18.618Z,7.07
2018-11-03T10:28:47.379Z,7.14
2018-11-03T10:31:16.121Z,7.24
2018-11-03T10:33:45.018Z,7.30
2018-11-03T10:36:13.683Z,7.38
2018-11-03T10:38:42.335Z,7.42
2018-11-03T10:41:11.125Z,7.43
2018-11-03T10:43:39.868Z,7.45
2018-11-03T10:46:08.680Z,7.49
2018-11-03T10:48:37.414Z,7.49
2018-11-03T10:51:07.303Z,7.47
2018-11-03T10:53:36.181Z,7.50
2018-11-03T10:56:04.720Z,7.58
2018-11-03T10:58:33.442Z,7.64
2018-11-03T11:01:07.462Z,7.67
2018-11-03T11:03:41.526Z,7.69
2018-11-03T11:06:15.315Z,7.75
2018-11-03T11:08:49.212Z,7.80
2018-11-03T11:11:22.992Z,7.81
2018-11-03T11:13:51.835Z,7.82
2018-11-03T11:16:20.664Z,7.78
2018-11-03T11:18:49.981Z,7.77
2018-11-03T11:21:18.781Z,7.73
2018-11-03T11:23:47.575Z,7.69
2018-11-03T11:26:16.251Z,7.72
2018-11-03T11:28:45.004Z,7.77
2018-11-03T11:31:13.879Z,7.81
2018-11-03T11:33:43.473Z,7.82
2018-11-03T11:36:12.293Z,7.88
2018-11-03T11:38:41.115Z,7.91
2018-11-03T11:41:09.787Z,7.92
2018-11-03T11:43:38.522Z,7.88
2018-11-03T11:46:07.176Z,7.83
2018-11-03T11:48:35.875Z,7.80
2018-11-03T11:51:04.774Z,7.77
2018-11-03T11:53:33.533Z,7.85
2018-11-03T11:56:02.206Z,7.96
2018-11-03T11:58:30.991Z,8.09
2018-11-03T12:00:59.807Z,8.22
2018-11-03T12:03:28.592Z,8.29
2018-11-03T12:05:57.444Z,8.32
2018-11-03T12:08:26.519Z,8.36
2018-11-03T12:10:55.271Z,8.49
2018-11-03T12:13:24.156Z,8.47
2018-11-03T12:15:52.818Z,8.43
2018-11-03T12:18:21.464Z,8.37
2018-11-03T12:20:50.192Z,8.40
2018-11-03T12:23:19.036Z,8.51
2018-11-03T12:25:47.748Z,8.62
2018-11-03T12:28:16.421Z,8.68
2018-11-03T12:30:45.080Z,8.67
2018-11-03T12:33:13.903Z,8.65
2018-11-03T12:35:42.917Z,8.60
2018-11-03T12:38:11.661Z,8.64
2018-11-03T12:40:40.401Z,8.73
2018-11-03T12:43:09.092Z,8.78
2018-11-03T12:45:37.909Z,8.84
2018-11-03T12:48:06.778Z,8.89
2018-11-03T12:50:35.382Z,9.04
2018-11-03T12:53:04.470Z,8.95
2018-11-03T12:55:33.215Z,8.99
2018-11-03T12:58:02.811Z,9.14
2018-11-03T13:00:31.508Z,9.20
2018-11-03T13:03:00.196Z,9.25
2018-11-03T13:05:28.894Z,9.43
2018-11-03T13:07:57.715Z,9.55
2018-11-03T13:10:26.501Z,9.68
2018-11-03T13:12:55.163Z,9.77
2018-11-03T13:15:24.027Z,9.79
2018-11-03T13:17:52.743Z,9.83
2018-11-03T13:20:21.502Z,10.01
2018-11-03T13:22:50.300Z,10.16
2018-11-03T13:25:18.875Z,10.36
2018-11-03T13:27:47.578Z,10.56
2018-11-03T13:30:16.327Z,10.56
2018-11-03T13:32:44.933Z,10.64
2018-11-03T13:35:14.530Z,10.66
2018-11-03T13:37:43.258Z,11.07
2018-11-03T13:40:13.461Z,13.12
2018-11-03T13:42:42.656Z,15.43
2018-11-03T13:45:11.702Z,17.30
2018-11-03T13:47:40.852Z,18.42
2018-11-03T13:50:12.880Z,19.06
2018-11-03T13:52:43.156Z,19.51
2018-11-03T13:55:11.905Z,20.02
2018-11-03T13:57:41.585Z,20.86
2018-11-03T14:02:40.839Z,21.67
2018-11-03T14:05:10.364Z,22.20
2018-11-03T14:07:39.152Z,22.36
2018-11-03T14:10:10.321Z,22.90
2018-11-03T14:12:38.981Z,23.08
2018-11-03T14:15:09.340Z,23.04
2018-11-03T14:17:38.057Z,22.88
2018-11-03T14:20:07.942Z,22.52
2018-11-03T14:22:36.563Z,22.18
2018-11-03T14:25:06.137Z,21.81
2018-11-03T14:27:34.825Z,21.54
2018-11-03T14:30:03.477Z,20.99
2018-11-03T14:32:32.165Z,21.26
2018-11-03T14:35:00.789Z,21.40
2018-11-03T14:37:29.664Z,21.11
2018-11-03T14:39:58.405Z,20.78
2018-11-03T14:42:27.255Z,20.71
2018-11-03T14:44:56.159Z,20.57
2018-11-03T14:47:24.710Z,20.52
2018-11-03T14:49:53.410Z,20.36
2018-11-03T14:52:22.122Z,19.93
2018-11-03T14:54:51.756Z,19.44
2018-11-03T14:57:21.683Z,18.60
2018-11-03T14:59:50.411Z,17.85
2018-11-03T15:02:19.131Z,17.03
2018-11-03T15:04:47.820Z,16.40
2018-11-03T15:07:16.617Z,15.60
2018-11-03T15:09:45.303Z,14.73
2018-11-03T15:12:13.951Z,13.77
2018-11-03T15:14:42.670Z,13.09
2018-11-03T15:17:11.389Z,12.47
2018-11-03T15:19:39.972Z,11.65
2018-11-03T15:22:08.579Z,10.76
2018-11-03T15:24:37.252Z,9.95
2018-11-03T15:27:06.026Z,9.31
2018-11-03T15:29:34.684Z,8.78
2018-11-03T15:32:03.376Z,8.36
2018-11-03T15:34:32.244Z,7.94
2018-11-03T15:37:00.958Z,7.54
2018-11-03T15:39:29.677Z,7.16
2018-11-03T15:41:58.427Z,6.80
2018-11-03T15:44:27.031Z,6.48
2018-11-03T15:46:55.760Z,6.19
2018-11-03T15:49:24.414Z,5.91
2018-11-03T15:51:53.185Z,5.69
2018-11-03T15:54:22.961Z,5.47
2018-11-03T15:56:51.842Z,5.24
2018-11-03T15:59:20.560Z,5.07
2018-11-03T16:01:49.159Z,4.88
2018-11-03T16:04:17.864Z,4.73
2018-11-03T16:06:46.515Z,4.55
2018-11-03T16:09:15.294Z,4.36
2018-11-03T16:11:43.908Z,4.20
2018-11-03T16:14:12.703Z,4.13
2018-11-03T16:16:41.397Z,4.06
2018-11-03T16:19:10.215Z,3.97
2018-11-03T16:21:38.792Z,3.88
2018-11-03T16:24:07.422Z,3.74
2018-11-03T16:26:36.156Z,3.60
2018-11-03T16:29:04.792Z,3.58
2018-11-03T16:31:33.367Z,3.49
2018-11-03T16:34:02.060Z,3.43
2018-11-03T16:36:30.691Z,3.35
2018-11-03T16:38:59.484Z,3.25
2018-11-03T16:41:28.298Z,3.17
2018-11-03T16:43:57.053Z,3.14
2018-11-03T16:46:25.756Z,3.09
2018-11-03T16:48:54.413Z,3.01
2018-11-03T16:51:23.002Z,2.90
2018-11-03T16:53:51.625Z,2.91
2018-11-03T16:56:20.286Z,2.89
2018-11-03T16:58:49.034Z,2.84
2018-11-03T17:01:17.678Z,2.77
2018-11-03T17:03:46.347Z,2.74
2018-11-03T17:06:15.883Z,2.73
2018-11-03T17:08:44.671Z,2.70
2018-11-03T17:11:13.362Z,2.68
2018-11-03T17:13:42.080Z,2.60
2018-11-03T17:16:10.731Z,2.53
2018-11-03T17:18:39.466Z,2.52
2018-11-03T17:21:08.062Z,2.47
2018-11-03T17:23:36.684Z,2.38
2018-11-03T17:26:05.793Z,2.29
2018-11-03T17:28:34.390Z,2.22
2018-11-03T17:31:03.089Z,2.17
2018-11-03T17:33:31.696Z,2.15
2018-11-03T17:36:00.488Z,2.15
2018-11-03T17:38:29.252Z,2.15
2018-11-03T17:40:58.213Z,2.15
2018-11-03T17:43:26.881Z,2.14
2018-11-03T17:45:55.554Z,2.16
2018-11-03T17:48:24.202Z,2.16
2018-11-03T17:50:52.995Z,2.17
2018-11-03T17:53:22.204Z,2.20
2018-11-03T17:55:50.830Z,2.17
2018-11-03T17:58:19.647Z,2.17
2018-11-03T18:00:48.494Z,2.19
2018-11-03T18:03:17.131Z,2.20
2018-11-03T18:05:46.015Z,2.20
2018-11-03T18:08:14.814Z,2.25
2018-11-03T18:10:44.172Z,2.24
2018-11-03T18:13:13.076Z,2.23
2018-11-03T18:15:41.886Z,2.21
2018-11-03T18:18:10.898Z,2.15
2018-11-03T18:20:39.698Z,2.11
2018-11-03T18:23:08.583Z,2.04
2018-11-03T18:25:37.748Z,2.00
2018-11-03T18:28:07.040Z,1.95
2018-11-03T18:30:36.068Z,1.94
2018-11-03T18:33:05.245Z,1.99
2018-11-03T18:35:34.036Z,2.05
2018-11-03T18:38:02.903Z,1.99
2018-11-03T18:40:31.740Z,1.87
2018-11-03T18:43:00.545Z,1.82
2018-11-03T18:45:30.119Z,1.83
2018-11-03T18:47:58.795Z,1.78
2018-11-03T18:50:27.563Z,1.76
2018-11-03T18:52:56.463Z,1.75
2018-11-03T18:55:25.273Z,1.73
2018-11-03T18:57:54.105Z,1.73
2018-11-03T19:00:26.643Z,1.70
2018-11-03T19:02:55.495Z,1.65
2018-11-03T19:05:24.441Z,1.68
2018-11-03T19:07:53.362Z,1.73
2018-11-03T19:10:22.297Z,1.79
2018-11-03T19:12:51.072Z,1.78
2018-11-03T19:15:19.782Z,1.76
2018-11-03T19:17:48.462Z,1.73
2018-11-03T19:20:17.361Z,1.65
2018-11-03T19:22:46.202Z,1.57
2018-11-03T19:25:15.123Z,1.56
2018-11-03T19:27:43.956Z,1.52
2018-11-03T19:30:13.996Z,1.48
2018-11-03T19:32:43.987Z,1.46
2018-11-03T19:35:12.768Z,1.40
2018-11-03T19:37:42.208Z,1.36
2018-11-03T19:40:12.331Z,1.38
2018-11-03T19:42:41.536Z,1.38
2018-11-03T19:45:11.574Z,1.33
2018-11-03T19:47:40.401Z,1.30
2018-11-03T19:50:10.085Z,1.30
2018-11-03T19:52:39.142Z,1.31
2018-11-03T19:55:08.108Z,1.32
2018-11-03T19:57:36.900Z,1.33
2018-11-03T20:00:08.300Z,1.32
2018-11-03T20:02:37.145Z,1.26
2018-11-03T20:05:06.940Z,1.22
2018-11-03T20:07:35.871Z,1.22
2018-11-03T20:10:05.042Z,1.20
2018-11-03T20:12:34.084Z,1.21
2018-11-03T20:15:02.963Z,1.25
2018-11-03T20:17:31.711Z,1.24
2018-11-03T20:20:00.399Z,1.18
2018-11-03T20:22:29.398Z,1.12
2018-11-03T20:24:58.079Z,1.07
2018-11-03T20:27:26.777Z,1.05
2018-11-03T20:29:55.581Z,1.00
2018-11-03T20:32:24.605Z,0.97
2018-11-03T20:34:53.534Z,0.99
2018-11-03T20:37:22.214Z,0.98
2018-11-03T20:39:50.908Z,0.93
2018-11-03T20:42:19.673Z,0.85
2018-11-03T20:44:48.490Z,0.81
2018-11-03T20:47:17.458Z,0.79
2018-11-03T20:49:46.095Z,0.73
2018-11-03T20:52:14.893Z,0.74
2018-11-03T20:54:43.588Z,0.75
2018-11-03T20:57:12.350Z,0.70
2018-11-03T20:59:41.049Z,0.68
2018-11-03T21:02:09.951Z,0.69
2018-11-03T21:04:38.588Z,0.69
2018-11-03T21:07:07.210Z,0.64
2018-11-03T21:09:35.958Z,0.64
2018-11-03T21:12:04.722Z,0.62
2018-11-03T21:14:33.520Z,0.63
2018-11-03T21:17:02.147Z,0.59
2018-11-03T21:19:30.819Z,0.56
2018-11-03T21:21:59.500Z,0.52
2018-11-03T21:24:28.228Z,0.47
2018-11-03T21:26:57.181Z,0.42
2018-11-03T21:29:25.966Z,0.41
2018-11-03T21:31:54.832Z,0.36
2018-11-03T21:34:23.532Z,0.39
2018-11-03T21:36:52.273Z,0.44
2018-11-03T21:39:20.953Z,0.38
2018-11-03T21:41:49.601Z,0.33
2018-11-03T21:44:18.443Z,0.25
2018-11-03T21:46:47.136Z,0.19
2018-11-03T21:49:15.815Z,0.21
2018-11-03T21:51:44.717Z,0.15
2018-11-03T21:54:13.440Z,0.11
2018-11-03T21:56:42.410Z,0.09
2018-11-03T21:59:11.116Z,0.02
2018-11-03T22:01:39.841Z,-0.07
2018-11-03T22:04:08.569Z,-0.12
2018-11-03T22:06:37.189Z,-0.13
2018-11-03T22:09:08.724Z,-0.15
2018-11-03T22:11:37.442Z,-0.13
2018-11-03T22:14:06.263Z,-0.12
2018-11-03T22:16:34.949Z,-0.13
2018-11-03T22:19:03.695Z,-0.12
2018-11-03T22:21:32.602Z,-0.09
2018-11-03T22:24:02.170Z,-0.08
2018-11-03T22:26:31.083Z,-0.07
2018-11-03T22:28:59.827Z,-0.09
2018-11-03T22:31:28.667Z,-0.09
2018-11-03T22:33:57.450Z,-0.10
2018-11-03T22:36:26.211Z,-0.08
2018-11-03T22:38:54.937Z,-0.09
2018-11-03T22:41:23.657Z,-0.04
2018-11-03T22:43:52.384Z,0.02
2018-11-03T22:46:21.001Z,0.06
2018-11-03T22:48:49.776Z,0.07
2018-11-03T22:51:18.406Z,0.03
2018-11-03T22:53:47.217Z,-0.02
2018-11-03T22:56:15.915Z,-0.06
2018-11-03T22:58:44.526Z,-0.07
2018-11-03T23:01:13.216Z,-0.05
2018-11-03T23:03:41.875Z,-0.03
2018-11-03T23:06:10.496Z,-0.02
2018-11-03T23:08:40.073Z,-0.01
2018-11-03T23:11:08.863Z,-0.04
2018-11-03T23:13:37.623Z,-0.07
2018-11-03T23:16:06.658Z,-0.01
2018-11-03T23:18:35.213Z,-0.04
2018-11-03T23:21:03.972Z,-0.08
2018-11-03T23:23:32.616Z,-0.11
2018-11-03T23:26:01.414Z,-0.18
2018-11-03T23:28:30.563Z,-0.23
2018-11-03T23:30:59.298Z,-0.26
2018-11-03T23:33:27.916Z,-0.27
2018-11-03T23:35:56.579Z,-0.30
2018-11-03T23:38:25.345Z,-0.32
2018-11-03T23:40:54.057Z,-0.31
2018-11-03T23:43:22.783Z,-0.34
2018-11-03T23:45:51.544Z,-0.36
2018-11-03T23:48:20.210Z,-0.38
2018-11-03T23:50:48.941Z,-0.42
2018-11-03T23:53:17.657Z,-0.46
2018-11-03T23:55:46.493Z,-0.45
2018-11-03T23:58:15.205Z,-0.43
